createdAt,value
2022-09-27T00:01:39.976Z,44.92
2022-09-27T00:06:47.028Z,44.92
2022-09-27T00:11:54.206Z,44.91
2022-09-27T00:17:01.470Z,44.96
2022-09-27T00:22:08.620Z,44.98
2022-09-27T00:27:15.776Z,45.04
2022-09-27T00:32:22.989Z,45.04
2022-09-27T00:37:30.156Z,45.11
2022-09-27T00:42:37.365Z,45.11
2022-09-27T00:47:44.629Z,45.15
2022-09-27T00:52:51.837Z,45.17
2022-09-27T00:57:59.010Z,45.24
2022-09-27T01:03:06.236Z,45.24
2022-09-27T01:08:13.412Z,45.24
2022-09-27T01:13:20.685Z,45.23
2022-09-27T01:18:27.999Z,45.22
2022-09-27T01:23:35.151Z,45.23
2022-09-27T01:28:42.335Z,45.25
2022-09-27T01:33:49.615Z,45.24
2022-09-27T01:38:56.852Z,45.28
2022-09-27T01:44:04.059Z,45.33
2022-09-27T01:49:11.291Z,45.40
2022-09-27T01:54:18.465Z,45.45
2022-09-27T01:59:25.689Z,45.40
2022-09-27T02:04:32.913Z,45.52
2022-09-27T02:09:40.046Z,45.53
2022-09-27T02:14:47.285Z,45.59
2022-09-27T02:19:54.631Z,45.62
2022-09-27T02:25:01.785Z,45.58
2022-09-27T02:30:09.028Z,45.56
2022-09-27T02:35:16.258Z,45.52
2022-09-27T02:40:23.566Z,45.43
2022-09-27T02:45:30.635Z,45.47
2022-09-27T02:50:37.866Z,45.49
2022-09-27T02:55:45.060Z,45.43
2022-09-27T03:00:52.349Z,45.37
2022-09-27T03:05:59.560Z,45.45
2022-09-27T03:11:06.735Z,45.50
2022-09-27T03:16:13.951Z,45.40
2022-09-27T03:21:21.243Z,45.48
2022-09-27T03:26:28.478Z,45.46
2022-09-27T03:31:35.761Z,45.37
2022-09-27T03:36:42.997Z,45.29
2022-09-27T03:41:50.232Z,45.21
2022-09-27T03:46:57.482Z,45.15
2022-09-27T03:52:04.724Z,45.14
2022-09-27T03:57:11.909Z,45.07
2022-09-27T04:02:19.149Z,45.08
2022-09-27T04:07:26.287Z,45.07
2022-09-27T04:12:33.519Z,45.08
2022-09-27T04:17:40.716Z,45.08
2022-09-27T04:22:47.955Z,45.01
2022-09-27T04:27:55.247Z,45.02
2022-09-27T04:33:02.477Z,44.98
2022-09-27T04:38:09.768Z,44.96
2022-09-27T04:43:16.967Z,44.83
2022-09-27T04:48:24.312Z,44.82
2022-09-27T04:53:31.695Z,44.79
2022-09-27T04:58:38.877Z,44.76
2022-09-27T05:03:46.569Z,44.73
2022-09-27T05:08:53.832Z,44.70
2022-09-27T05:14:01.058Z,44.70
2022-09-27T05:19:09.223Z,44.72
2022-09-27T05:24:16.352Z,44.67
2022-09-27T05:29:23.530Z,44.62
2022-09-27T05:34:30.727Z,44.56
2022-09-27T05:39:37.970Z,44.51
2022-09-27T05:44:45.134Z,44.45
2022-09-27T05:49:52.312Z,44.45
2022-09-27T05:54:59.557Z,44.38
2022-09-27T06:00:07.260Z,44.46
2022-09-27T06:05:14.484Z,44.36
2022-09-27T06:10:21.696Z,44.34
2022-09-27T06:15:28.828Z,44.23
2022-09-27T06:20:36.078Z,44.19
2022-09-27T06:25:43.301Z,44.14
2022-09-27T06:31:04.615Z,44.51
2022-09-27T06:36:11.764Z,44.42
2022-09-27T06:41:18.941Z,44.11
2022-09-27T06:46:26.170Z,44.26
2022-09-27T06:51:33.350Z,43.56
2022-09-27T06:56:40.629Z,42.62
2022-09-27T07:01:47.993Z,43.66
2022-09-27T07:06:55.253Z,43.05
2022-09-27T07:12:02.505Z,43.17
2022-09-27T07:17:09.656Z,43.65
2022-09-27T07:22:16.869Z,43.62
2022-09-27T07:27:24.101Z,43.61
2022-09-27T07:32:31.274Z,43.66
2022-09-27T07:37:38.489Z,43.59
2022-09-27T07:42:46.017Z,43.59
2022-09-27T07:47:53.193Z,43.45
2022-09-27T07:53:00.384Z,42.60
2022-09-27T07:58:07.815Z,43.48
2022-09-27T08:03:15.040Z,42.94
2022-09-27T08:08:22.255Z,43.50
2022-09-27T08:13:29.655Z,43.32
2022-09-27T08:18:37.107Z,43.11
2022-09-27T08:23:44.352Z,43.14
2022-09-27T08:28:51.745Z,43.64
2022-09-27T08:33:58.866Z,43.62
2022-09-27T08:39:06.072Z,42.27
2022-09-27T08:44:13.651Z,44.01
2022-09-27T08:49:23.486Z,42.11
2022-09-27T08:54:30.679Z,41.66
2022-09-27T08:59:37.956Z,42.47
2022-09-27T09:04:45.165Z,41.80
2022-09-27T09:09:52.561Z,42.89
2022-09-27T09:14:59.908Z,42.54
2022-09-27T09:20:06.977Z,42.64
2022-09-27T09:25:14.183Z,42.82
2022-09-27T09:30:21.591Z,42.75
2022-09-27T09:35:28.641Z,42.82
2022-09-27T09:40:35.859Z,42.81
2022-09-27T09:45:43.105Z,42.48
2022-09-27T09:50:50.207Z,42.77
2022-09-27T09:55:57.428Z,42.75
2022-09-27T10:01:04.908Z,42.80
2022-09-27T10:06:26.797Z,43.00
2022-09-27T10:11:33.988Z,42.46
2022-09-27T10:16:41.308Z,43.02
2022-09-27T10:21:48.402Z,41.14
2022-09-27T10:26:55.606Z,41.52
2022-09-27T10:32:02.818Z,42.16
2022-09-27T10:37:10.027Z,42.18
2022-09-27T10:42:17.228Z,42.21
2022-09-27T10:47:24.472Z,41.82
2022-09-27T10:52:31.634Z,42.01
2022-09-27T10:57:42.968Z,41.97
2022-09-27T11:02:46.120Z,42.30
2022-09-27T11:07:53.862Z,42.50
2022-09-27T11:13:01.129Z,42.70
2022-09-27T11:18:08.472Z,42.81
2022-09-27T11:23:15.669Z,42.91
2022-09-27T11:28:22.881Z,42.84
2022-09-27T11:33:30.113Z,42.90
2022-09-27T11:38:53.947Z,43.08
2022-09-27T11:43:44.578Z,43.21
2022-09-27T11:48:51.817Z,42.95
2022-09-27T11:53:58.985Z,42.98
2022-09-27T11:59:06.184Z,43.08
2022-09-27T12:04:13.447Z,43.09
2022-09-27T12:09:20.569Z,43.15
2022-09-27T12:14:27.770Z,43.16
2022-09-27T12:19:35.043Z,42.86
2022-09-27T12:24:42.150Z,42.98
2022-09-27T12:29:49.414Z,43.17
2022-09-27T12:34:56.711Z,43.69
2022-09-27T12:40:04.002Z,43.62
2022-09-27T12:45:11.317Z,43.55
2022-09-27T12:50:18.606Z,43.59
2022-09-27T12:55:25.855Z,43.63
2022-09-27T13:00:33.098Z,43.79
2022-09-27T13:05:40.298Z,43.88
2022-09-27T13:10:47.486Z,43.92
2022-09-27T13:15:54.707Z,44.20
2022-09-27T13:21:01.917Z,44.36
2022-09-27T13:26:09.086Z,44.43
2022-09-27T13:31:16.683Z,44.43
2022-09-27T13:36:23.642Z,44.40
2022-09-27T13:41:31.023Z,44.36
2022-09-27T13:46:38.408Z,44.45
2022-09-27T13:51:45.753Z,44.38
2022-09-27T13:56:52.946Z,44.31
2022-09-27T14:02:00.306Z,44.38
2022-09-27T14:07:07.356Z,44.31
2022-09-27T14:12:14.550Z,44.22
2022-09-27T14:17:21.825Z,44.14
2022-09-27T14:22:29.050Z,44.08
2022-09-27T14:27:36.317Z,44.06
2022-09-27T14:32:43.578Z,44.09
2022-09-27T14:37:51.736Z,44.09
2022-09-27T14:42:58.971Z,44.12
2022-09-27T14:48:06.581Z,44.20
2022-09-27T14:53:13.846Z,44.24
2022-09-27T14:58:43.103Z,44.25
2022-09-27T15:03:28.428Z,44.28
2022-09-27T15:08:35.602Z,44.40
2022-09-27T15:13:42.761Z,44.38
2022-09-27T15:18:49.981Z,44.43
2022-09-27T15:23:57.198Z,44.42
2022-09-27T15:29:04.389Z,44.44
2022-09-27T15:34:11.559Z,44.46
2022-09-27T15:39:19.077Z,44.40
2022-09-27T15:44:25.964Z,44.41
2022-09-27T15:49:33.191Z,44.27
2022-09-27T15:54:40.435Z,44.17
2022-09-27T15:59:47.606Z,44.11
2022-09-27T16:04:54.781Z,44.11
2022-09-27T16:10:02.021Z,44.14
2022-09-27T16:15:09.252Z,44.13
2022-09-27T16:20:16.528Z,44.17
2022-09-27T16:25:23.828Z,44.20
2022-09-27T16:30:31.142Z,44.14
2022-09-27T16:35:38.379Z,44.12
2022-09-27T16:40:45.754Z,44.20
2022-09-27T16:45:52.842Z,44.27
2022-09-27T16:51:00.134Z,44.30
2022-09-27T16:56:07.380Z,44.38
2022-09-27T17:01:14.717Z,44.43
2022-09-27T17:06:21.814Z,44.45
2022-09-27T17:11:29.080Z,44.46
2022-09-27T17:16:36.257Z,44.44
2022-09-27T17:21:43.486Z,44.49
2022-09-27T17:26:50.700Z,44.53
2022-09-27T17:31:57.905Z,44.63
2022-09-27T17:37:05.080Z,44.53
2022-09-27T17:42:12.341Z,44.67
2022-09-27T17:47:19.653Z,44.59
2022-09-27T17:52:26.914Z,44.62
2022-09-27T17:57:34.121Z,44.60
2022-09-27T18:02:41.654Z,44.71
2022-09-27T18:07:48.871Z,45.16
2022-09-27T18:12:56.142Z,45.17
2022-09-27T18:18:03.365Z,45.20
2022-09-27T18:23:10.665Z,45.13
2022-09-27T18:28:17.899Z,45.15
2022-09-27T18:33:25.154Z,44.93
2022-09-27T18:38:34.421Z,44.61
2022-09-27T18:43:42.037Z,44.46
2022-09-27T18:48:49.526Z,44.33
2022-09-27T18:53:57.253Z,44.24
2022-09-27T18:59:04.889Z,44.15
2022-09-27T19:04:12.197Z,43.87
2022-09-27T19:09:19.614Z,43.83
2022-09-27T19:14:27.108Z,43.73
2022-09-27T19:19:34.596Z,43.57
2022-09-27T19:24:42.018Z,43.46
2022-09-27T19:29:49.588Z,43.36
2022-09-27T19:34:57.132Z,43.18
2022-09-27T19:40:05.063Z,43.18
2022-09-27T19:45:12.695Z,43.09
2022-09-27T19:50:20.081Z,43.08
2022-09-27T19:55:27.312Z,43.30
2022-09-27T20:00:34.580Z,43.37
2022-09-27T20:05:41.750Z,43.45
2022-09-27T20:10:49.306Z,43.50
2022-09-27T20:15:56.797Z,43.69
2022-09-27T20:21:04.226Z,43.70
2022-09-27T20:26:11.603Z,43.57
2022-09-27T20:31:19.055Z,43.66
2022-09-27T20:36:26.138Z,43.66
2022-09-27T20:41:33.380Z,43.53
2022-09-27T20:46:40.715Z,43.40
2022-09-27T20:51:47.781Z,43.18
2022-09-27T20:56:54.982Z,43.13
2022-09-27T21:02:02.260Z,42.98
2022-09-27T21:07:09.403Z,42.90
2022-09-27T21:12:16.684Z,42.89
2022-09-27T21:17:23.922Z,42.98
2022-09-27T21:22:31.095Z,42.83
2022-09-27T21:27:38.302Z,42.68
2022-09-27T21:32:45.546Z,42.53
2022-09-27T21:37:52.736Z,42.47
2022-09-27T21:42:59.923Z,42.34
2022-09-27T21:48:07.135Z,42.34
2022-09-27T21:53:14.306Z,42.16
2022-09-27T21:58:21.452Z,42.18
2022-09-27T22:03:28.638Z,41.95
2022-09-27T22:08:35.834Z,41.95
2022-09-27T22:13:43.041Z,41.87
2022-09-27T22:18:50.363Z,41.88
2022-09-27T22:23:57.465Z,41.79
2022-09-27T22:29:04.676Z,41.81
2022-09-27T22:34:11.868Z,41.79
2022-09-27T22:39:19.064Z,41.70
2022-09-27T22:44:26.260Z,41.63
2022-09-27T22:49:33.525Z,41.53
2022-09-27T22:54:40.656Z,41.45
2022-09-27T22:59:47.899Z,41.41
2022-09-27T23:04:55.123Z,41.34
2022-09-27T23:10:02.310Z,41.31
2022-09-27T23:15:09.492Z,41.34
2022-09-27T23:20:16.729Z,41.21
2022-09-27T23:25:23.908Z,41.09
2022-09-27T23:30:31.118Z,41.31
2022-09-27T23:35:38.368Z,41.28
2022-09-27T23:40:45.582Z,41.26
2022-09-27T23:45:52.701Z,41.29
2022-09-27T23:50:59.993Z,41.40
2022-09-27T23:56:07.181Z,41.51
